sensor_id;sensor_type;location;lat;lon;timestamp;pressure;altitude;pressure_sealevel;temperature;humidity
10587;BME280;5341;47.606;7.576;2023-12-28T00:00:18;99156.56;;;7.20;60.01
10587;BME280;5341;47.606;7.576;2023-12-28T00:02:46;99143.44;;;7.19;60.33
10587;BME280;5341;47.606;7.576;2023-12-28T00:05:13;99147.91;;;7.18;60.29
10587;BME280;5341;47.606;7.576;2023-12-28T00:07:41;99136.28;;;7.19;60.28
10587;BME280;5341;47.606;7.576;2023-12-28T00:10:10;99133.78;;;7.18;60.18
10587;BME280;5341;47.606;7.576;2023-12-28T00:12:42;99141.75;;;7.18;59.81
10587;BME280;5341;47.606;7.576;2023-12-28T00:15:10;99179.16;;;7.16;60.04
10587;BME280;5341;47.606;7.576;2023-12-28T00:17:37;99181.03;;;7.06;59.81
10587;BME280;5341;47.606;7.576;2023-12-28T00:20:06;99163.69;;;7.02;59.97
10587;BME280;5341;47.606;7.576;2023-12-28T00:22:33;99169.16;;;7.00;60.21
10587;BME280;5341;47.606;7.576;2023-12-28T00:25:05;99181.59;;;7.00;60.34
10587;BME280;5341;47.606;7.576;2023-12-28T00:27:32;99179.78;;;7.00;60.22
10587;BME280;5341;47.606;7.576;2023-12-28T00:30:07;99176.28;;;7.00;60.17
10587;BME280;5341;47.606;7.576;2023-12-28T00:32:36;99173.78;;;6.98;60.31
10587;BME280;5341;47.606;7.576;2023-12-28T00:35:06;99158.66;;;6.99;60.17
10587;BME280;5341;47.606;7.576;2023-12-28T00:37:33;99163.16;;;6.98;60.34
10587;BME280;5341;47.606;7.576;2023-12-28T00:40:01;99157.00;;;6.98;60.42
10587;BME280;5341;47.606;7.576;2023-12-28T00:42:30;99149.03;;;6.98;60.39
10587;BME280;5341;47.606;7.576;2023-12-28T00:45:01;99162.47;;;6.96;60.11
10587;BME280;5341;47.606;7.576;2023-12-28T00:47:30;99165.13;;;6.96;60.11
10587;BME280;5341;47.606;7.576;2023-12-28T00:49:58;99156.31;;;6.96;60.31
10587;BME280;5341;47.606;7.576;2023-12-28T00:52:25;99147.66;;;6.94;60.36
10587;BME280;5341;47.606;7.576;2023-12-28T00:54:53;99149.47;;;6.93;60.12
10587;BME280;5341;47.606;7.576;2023-12-28T00:57:20;99166.41;;;6.92;60.39
10587;BME280;5341;47.606;7.576;2023-12-28T00:59:47;99179.72;;;6.92;60.16
10587;BME280;5341;47.606;7.576;2023-12-28T01:02:16;99176.34;;;6.90;60.08
10587;BME280;5341;47.606;7.576;2023-12-28T01:04:50;99175.50;;;6.90;59.88
10587;BME280;5341;47.606;7.576;2023-12-28T01:07:18;99177.47;;;6.88;60.27
10587;BME280;5341;47.606;7.576;2023-12-28T01:09:46;99188.94;;;6.88;60.18
10587;BME280;5341;47.606;7.576;2023-12-28T01:12:13;99204.22;;;6.86;60.06
10587;BME280;5341;47.606;7.576;2023-12-28T01:14:41;99210.53;;;6.85;60.25
10587;BME280;5341;47.606;7.576;2023-12-28T01:17:08;99208.84;;;6.84;60.23
10587;BME280;5341;47.606;7.576;2023-12-28T01:19:36;99204.38;;;6.85;60.35
10587;BME280;5341;47.606;7.576;2023-12-28T01:22:05;99198.22;;;6.84;60.37
10587;BME280;5341;47.606;7.576;2023-12-28T01:24:32;99192.22;;;6.82;60.41
10587;BME280;5341;47.606;7.576;2023-12-28T01:27:00;99206.50;;;6.81;60.38
10587;BME280;5341;47.606;7.576;2023-12-28T01:29:28;99204.66;;;6.82;60.14
10587;BME280;5341;47.606;7.576;2023-12-28T01:31:55;99207.63;;;6.79;60.12
10587;BME280;5341;47.606;7.576;2023-12-28T01:34:22;99220.06;;;6.78;60.42
10587;BME280;5341;47.606;7.576;2023-12-28T01:36:50;99231.56;;;6.79;60.38
10587;BME280;5341;47.606;7.576;2023-12-28T01:39:19;99234.31;;;6.77;59.92
10587;BME280;5341;47.606;7.576;2023-12-28T01:41:47;99237.97;;;6.76;60.28
10587;BME280;5341;47.606;7.576;2023-12-28T01:44:14;99234.47;;;6.75;60.01
10587;BME280;5341;47.606;7.576;2023-12-28T01:46:42;99225.81;;;6.73;60.23
10587;BME280;5341;47.606;7.576;2023-12-28T01:49:10;99223.16;;;6.73;60.36
10587;BME280;5341;47.606;7.576;2023-12-28T01:51:38;99219.66;;;6.73;60.32
10587;BME280;5341;47.606;7.576;2023-12-28T01:54:06;99223.16;;;6.73;60.35
10587;BME280;5341;47.606;7.576;2023-12-28T01:56:36;99240.09;;;6.72;60.40
10587;BME280;5341;47.606;7.576;2023-12-28T01:59:05;99249.88;;;6.72;60.07
10587;BME280;5341;47.606;7.576;2023-12-28T02:01:33;99255.34;;;6.70;60.14
10587;BME280;5341;47.606;7.576;2023-12-28T02:04:01;99252.69;;;6.70;60.45
10587;BME280;5341;47.606;7.576;2023-12-28T02:06:29;99246.53;;;6.70;60.48
10587;BME280;5341;47.606;7.576;2023-12-28T02:08:57;99243.06;;;6.69;60.23
10587;BME280;5341;47.606;7.576;2023-12-28T02:11:25;99241.38;;;6.68;60.31
10587;BME280;5341;47.606;7.576;2023-12-28T02:13:54;99242.47;;;6.66;60.34
10587;BME280;5341;47.606;7.576;2023-12-28T02:16:27;99259.28;;;6.66;60.21
10587;BME280;5341;47.606;7.576;2023-12-28T02:18:57;99251.44;;;6.65;60.29
10587;BME280;5341;47.606;7.576;2023-12-28T02:21:27;99259.56;;;6.63;60.15
10587;BME280;5341;47.606;7.576;2023-12-28T02:23:55;99266.84;;;6.61;60.32
10587;BME280;5341;47.606;7.576;2023-12-28T02:26:24;99268.66;;;6.61;60.17
10587;BME280;5341;47.606;7.576;2023-12-28T02:28:53;99264.34;;;6.60;60.35
10587;BME280;5341;47.606;7.576;2023-12-28T02:31:23;99261.81;;;6.58;60.44
10587;BME280;5341;47.606;7.576;2023-12-28T02:33:57;99263.66;;;6.58;60.06
10587;BME280;5341;47.606;7.576;2023-12-28T02:36:27;99267.97;;;6.59;60.08
10587;BME280;5341;47.606;7.576;2023-12-28T02:38:56;99268.97;;;6.58;60.35
10587;BME280;5341;47.606;7.576;2023-12-28T02:41:27;99270.94;;;6.56;60.34
10587;BME280;5341;47.606;7.576;2023-12-28T02:43:54;99262.97;;;6.56;60.37
10587;BME280;5341;47.606;7.576;2023-12-28T02:46:22;99258.47;;;6.56;60.30
10587;BME280;5341;47.606;7.576;2023-12-28T02:48:49;99270.09;;;6.55;60.23
10587;BME280;5341;47.606;7.576;2023-12-28T02:51:18;99269.25;;;6.55;60.08
10587;BME280;5341;47.606;7.576;2023-12-28T02:53:45;99273.75;;;6.54;60.40
10587;BME280;5341;47.606;7.576;2023-12-28T02:56:13;99276.41;;;6.54;60.10
10587;BME280;5341;47.606;7.576;2023-12-28T02:58:42;99272.88;;;6.54;60.42
10587;BME280;5341;47.606;7.576;2023-12-28T03:01:10;99268.41;;;6.54;60.72
10587;BME280;5341;47.606;7.576;2023-12-28T03:03:37;99264.06;;;6.53;60.08
10587;BME280;5341;47.606;7.576;2023-12-28T03:06:04;99261.56;;;6.52;60.27
10587;BME280;5341;47.606;7.576;2023-12-28T03:08:32;99256.25;;;6.52;60.28
10587;BME280;5341;47.606;7.576;2023-12-28T03:10:59;99245.63;;;6.52;60.61
10587;BME280;5341;47.606;7.576;2023-12-28T03:13:27;99257.22;;;6.51;60.39
10587;BME280;5341;47.606;7.576;2023-12-28T03:15:55;99253.72;;;6.50;60.49
10587;BME280;5341;47.606;7.576;2023-12-28T03:18:23;99247.59;;;6.50;60.48
10587;BME280;5341;47.606;7.576;2023-12-28T03:20:52;99252.91;;;6.50;60.65
10587;BME280;5341;47.606;7.576;2023-12-28T03:23:19;99252.06;;;6.49;60.38
10587;BME280;5341;47.606;7.576;2023-12-28T03:25:47;99254.72;;;6.49;60.43
10587;BME280;5341;47.606;7.576;2023-12-28T03:28:14;99246.91;;;6.47;60.51
10587;BME280;5341;47.606;7.576;2023-12-28T03:30:42;99247.72;;;6.48;60.32
10587;BME280;5341;47.606;7.576;2023-12-28T03:33:11;99254.88;;;6.47;60.34
10587;BME280;5341;47.606;7.576;2023-12-28T03:35:38;99256.84;;;6.45;60.49
10587;BME280;5341;47.606;7.576;2023-12-28T03:38:06;99258.50;;;6.46;60.15
10587;BME280;5341;47.606;7.576;2023-12-28T03:40:34;99254.19;;;6.45;60.48
10587;BME280;5341;47.606;7.576;2023-12-28T03:43:02;99248.16;;;6.43;60.45
10587;BME280;5341;47.606;7.576;2023-12-28T03:45:29;99243.84;;;6.42;60.17
10587;BME280;5341;47.606;7.576;2023-12-28T03:47:57;99240.19;;;6.43;60.31
10587;BME280;5341;47.606;7.576;2023-12-28T03:50:25;99241.19;;;6.42;60.35
10587;BME280;5341;47.606;7.576;2023-12-28T03:52:53;99250.09;;;6.41;60.58
10587;BME280;5341;47.606;7.576;2023-12-28T03:55:20;99238.66;;;6.41;60.21
10587;BME280;5341;47.606;7.576;2023-12-28T03:57:48;99234.31;;;6.40;60.36
10587;BME280;5341;47.606;7.576;2023-12-28T04:00:17;99236.13;;;6.39;60.58
10587;BME280;5341;47.606;7.576;2023-12-28T04:02:44;99230.81;;;6.39;60.67
10587;BME280;5341;47.606;7.576;2023-12-28T04:05:12;99216.72;;;6.39;60.39
10587;BME280;5341;47.606;7.576;2023-12-28T04:07:41;99211.53;;;6.37;60.36
10587;BME280;5341;47.606;7.576;2023-12-28T04:10:09;99217.69;;;6.38;60.65
10587;BME280;5341;47.606;7.576;2023-12-28T04:12:38;99204.56;;;6.36;60.33
10587;BME280;5341;47.606;7.576;2023-12-28T04:15:06;99199.25;;;6.36;60.21
10587;BME280;5341;47.606;7.576;2023-12-28T04:17:33;99204.56;;;6.36;60.38
10587;BME280;5341;47.606;7.576;2023-12-28T04:20:00;99204.56;;;6.36;60.73
10587;BME280;5341;47.606;7.576;2023-12-28T04:22:28;99199.41;;;6.35;60.39
10587;BME280;5341;47.606;7.576;2023-12-28T04:24:57;99197.72;;;6.34;60.12
10587;BME280;5341;47.606;7.576;2023-12-28T04:27:24;99201.06;;;6.36;60.30
10587;BME280;5341;47.606;7.576;2023-12-28T04:29:52;99193.41;;;6.33;60.36
10587;BME280;5341;47.606;7.576;2023-12-28T04:32:19;99185.44;;;6.33;60.56
10587;BME280;5341;47.606;7.576;2023-12-28T04:34:47;99198.84;;;6.31;60.10
10587;BME280;5341;47.606;7.576;2023-12-28T04:37:14;99188.22;;;6.31;60.69
10587;BME280;5341;47.606;7.576;2023-12-28T04:39:42;99195.47;;;6.29;60.23
10587;BME280;5341;47.606;7.576;2023-12-28T04:42:11;99191.16;;;6.28;60.18
10587;BME280;5341;47.606;7.576;2023-12-28T04:44:38;99188.66;;;6.27;60.10
10587;BME280;5341;47.606;7.576;2023-12-28T04:47:06;99194.78;;;6.27;60.27
10587;BME280;5341;47.606;7.576;2023-12-28T04:49:35;99189.78;;;6.24;60.26
10587;BME280;5341;47.606;7.576;2023-12-28T04:52:03;99181.81;;;6.24;60.33
10587;BME280;5341;47.606;7.576;2023-12-28T04:54:31;99182.78;;;6.23;60.46
10587;BME280;5341;47.606;7.576;2023-12-28T04:56:59;99182.94;;;6.22;60.30
10587;BME280;5341;47.606;7.576;2023-12-28T04:59:29;99176.78;;;6.21;60.41
10587;BME280;5341;47.606;7.576;2023-12-28T05:01:56;99176.94;;;6.20;60.31
10587;BME280;5341;47.606;7.576;2023-12-28T05:04:23;99173.31;;;6.21;60.18
10587;BME280;5341;47.606;7.576;2023-12-28T05:06:51;99173.44;;;6.19;60.38
10587;BME280;5341;47.606;7.576;2023-12-28T05:09:18;99174.28;;;6.20;60.80
10587;BME280;5341;47.606;7.576;2023-12-28T05:11:45;99168.97;;;6.20;60.75
10587;BME280;5341;47.606;7.576;2023-12-28T05:14:13;99178.75;;;6.19;60.27
10587;BME280;5341;47.606;7.576;2023-12-28T05:16:42;99180.44;;;6.20;60.61
10587;BME280;5341;47.606;7.576;2023-12-28T05:19:09;99165.50;;;6.19;60.50
10587;BME280;5341;47.606;7.576;2023-12-28T05:21:36;99169.13;;;6.18;60.53
10587;BME280;5341;47.606;7.576;2023-12-28T05:24:04;99175.28;;;6.19;60.36
10587;BME280;5341;47.606;7.576;2023-12-28T05:26:32;99171.78;;;6.18;60.50
10587;BME280;5341;47.606;7.576;2023-12-28T05:28:59;99180.69;;;6.17;60.27
10587;BME280;5341;47.606;7.576;2023-12-28T05:31:27;99178.88;;;6.17;60.72
10587;BME280;5341;47.606;7.576;2023-12-28T05:33:55;99176.38;;;6.16;60.33
10587;BME280;5341;47.606;7.576;2023-12-28T05:36:24;99177.22;;;6.16;60.38
10587;BME280;5341;47.606;7.576;2023-12-28T05:38:51;99185.16;;;6.16;60.54
10587;BME280;5341;47.606;7.576;2023-12-28T05:41:18;99186.00;;;6.17;60.46
10587;BME280;5341;47.606;7.576;2023-12-28T05:43:46;99195.78;;;6.16;60.40
10587;BME280;5341;47.606;7.576;2023-12-28T05:46:14;99201.09;;;6.16;60.78
10587;BME280;5341;47.606;7.576;2023-12-28T05:48:41;99221.38;;;6.17;60.42
10587;BME280;5341;47.606;7.576;2023-12-28T05:51:10;99220.69;;;6.15;60.31
10587;BME280;5341;47.606;7.576;2023-12-28T05:53:37;99215.50;;;6.14;60.83
10587;BME280;5341;47.606;7.576;2023-12-28T05:56:05;99208.38;;;6.14;60.33
10587;BME280;5341;47.606;7.576;2023-12-28T05:58:33;99202.25;;;6.14;61.02
10587;BME280;5341;47.606;7.576;2023-12-28T06:01:00;99207.41;;;6.15;60.91
10587;BME280;5341;47.606;7.576;2023-12-28T06:03:30;99201.25;;;6.15;61.05
10587;BME280;5341;47.606;7.576;2023-12-28T06:05:57;99216.19;;;6.16;60.81
10587;BME280;5341;47.606;7.576;2023-12-28T06:08:26;99205.59;;;6.16;61.05
10587;BME280;5341;47.606;7.576;2023-12-28T06:10:53;99213.53;;;6.16;60.91
10587;BME280;5341;47.606;7.576;2023-12-28T06:13:21;99226.00;;;6.15;60.73
10587;BME280;5341;47.606;7.576;2023-12-28T06:15:48;99220.81;;;6.14;60.59
10587;BME280;5341;47.606;7.576;2023-12-28T06:18:16;99222.63;;;6.13;60.79
10587;BME280;5341;47.606;7.576;2023-12-28T06:20:44;99223.47;;;6.14;61.15
10587;BME280;5341;47.606;7.576;2023-12-28T06:23:11;99222.63;;;6.13;60.81
10587;BME280;5341;47.606;7.576;2023-12-28T06:25:40;99240.94;;;6.16;60.95
10587;BME280;5341;47.606;7.576;2023-12-28T06:28:08;99234.78;;;6.16;60.90
10587;BME280;5341;47.606;7.576;2023-12-28T06:30:35;99243.59;;;6.16;60.91
10587;BME280;5341;47.606;7.576;2023-12-28T06:33:03;99243.47;;;6.18;61.21
10587;BME280;5341;47.606;7.576;2023-12-28T06:35:31;99239.84;;;6.19;61.37
10587;BME280;5341;47.606;7.576;2023-12-28T06:37:58;99240.69;;;6.20;61.52
10587;BME280;5341;47.606;7.576;2023-12-28T06:40:25;99236.19;;;6.20;61.45
10587;BME280;5341;47.606;7.576;2023-12-28T06:42:54;99224.59;;;6.21;61.23
10587;BME280;5341;47.606;7.576;2023-12-28T06:45:22;99232.41;;;6.23;61.59
10587;BME280;5341;47.606;7.576;2023-12-28T06:47:53;99227.94;;;6.23;61.18
10587;BME280;5341;47.606;7.576;2023-12-28T06:50:20;99225.28;;;6.23;61.49
10587;BME280;5341;47.606;7.576;2023-12-28T06:52:48;99233.94;;;6.25;61.58
10587;BME280;5341;47.606;7.576;2023-12-28T06:55:15;99237.44;;;6.26;61.78
10587;BME280;5341;47.606;7.576;2023-12-28T06:57:42;99239.09;;;6.27;61.17
10587;BME280;5341;47.606;7.576;2023-12-28T07:00:13;99242.44;;;6.29;61.52
10587;BME280;5341;47.606;7.576;2023-12-28T07:02:40;99236.31;;;6.28;61.69
10587;BME280;5341;47.606;7.576;2023-12-28T07:05:07;99232.66;;;6.29;61.81
10587;BME280;5341;47.606;7.576;2023-12-28T07:07:35;99231.72;;;6.30;61.37
10587;BME280;5341;47.606;7.576;2023-12-28T07:10:03;99227.25;;;6.31;61.35
10587;BME280;5341;47.606;7.576;2023-12-28T07:12:31;99218.28;;;6.32;61.82
10587;BME280;5341;47.606;7.576;2023-12-28T07:14:58;99223.44;;;6.33;61.46
10587;BME280;5341;47.606;7.576;2023-12-28T07:17:27;99227.78;;;6.34;61.96
10587;BME280;5341;47.606;7.576;2023-12-28T07:19:54;99212.69;;;6.35;61.45
10587;BME280;5341;47.606;7.576;2023-12-28T07:22:22;99214.34;;;6.36;61.66
10587;BME280;5341;47.606;7.576;2023-12-28T07:24:49;99218.69;;;6.37;61.67
10587;BME280;5341;47.606;7.576;2023-12-28T07:27:17;99219.50;;;6.37;61.65
10587;BME280;5341;47.606;7.576;2023-12-28T07:29:44;99237.97;;;6.39;61.71
10587;BME280;5341;47.606;7.576;2023-12-28T07:32:11;99245.94;;;6.39;61.68
10587;BME280;5341;47.606;7.576;2023-12-28T07:34:41;99240.75;;;6.37;61.77
10587;BME280;5341;47.606;7.576;2023-12-28T07:37:08;99241.44;;;6.39;61.77
10587;BME280;5341;47.606;7.576;2023-12-28T07:39:35;99234.31;;;6.40;61.93
10587;BME280;5341;47.606;7.576;2023-12-28T07:42:03;99241.31;;;6.41;62.56
10587;BME280;5341;47.606;7.576;2023-12-28T07:44:30;99251.94;;;6.41;62.23
10587;BME280;5341;47.606;7.576;2023-12-28T07:46:58;99258.91;;;6.42;62.18
10587;BME280;5341;47.606;7.576;2023-12-28T07:49:25;99252.75;;;6.41;61.83
10587;BME280;5341;47.606;7.576;2023-12-28T07:51:54;99249.16;;;6.42;62.39
10587;BME280;5341;47.606;7.576;2023-12-28T07:54:22;99252.66;;;6.43;62.57
10587;BME280;5341;47.606;7.576;2023-12-28T07:56:49;99249.00;;;6.44;62.45
10587;BME280;5341;47.606;7.576;2023-12-28T07:59:16;99235.56;;;6.45;62.44
10587;BME280;5341;47.606;7.576;2023-12-28T08:01:44;99229.13;;;6.48;62.62
10587;BME280;5341;47.606;7.576;2023-12-28T08:04:11;99248.56;;;6.49;62.39
10587;BME280;5341;47.606;7.576;2023-12-28T08:06:39;99241.44;;;6.49;62.21
10587;BME280;5341;47.606;7.576;2023-12-28T08:09:08;99239.59;;;6.50;62.56
10587;BME280;5341;47.606;7.576;2023-12-28T08:11:35;99235.97;;;6.51;62.60
10587;BME280;5341;47.606;7.576;2023-12-28T08:14:03;99235.81;;;6.52;62.17
10587;BME280;5341;47.606;7.576;2023-12-28T08:16:30;99231.34;;;6.53;62.25
10587;BME280;5341;47.606;7.576;2023-12-28T08:18:57;99249.81;;;6.54;62.45
10587;BME280;5341;47.606;7.576;2023-12-28T08:21:25;99265.63;;;6.56;62.34
10587;BME280;5341;47.606;7.576;2023-12-28T08:23:52;99271.78;;;6.56;62.46
10587;BME280;5341;47.606;7.576;2023-12-28T08:26:21;99276.09;;;6.57;62.57
10587;BME280;5341;47.606;7.576;2023-12-28T08:28:49;99281.41;;;6.57;62.46
10587;BME280;5341;47.606;7.576;2023-12-28T08:31:16;99285.75;;;6.58;63.14
10587;BME280;5341;47.606;7.576;2023-12-28T08:33:43;99275.13;;;6.58;62.78
10587;BME280;5341;47.606;7.576;2023-12-28T08:36:11;99277.47;;;6.61;63.22
10587;BME280;5341;47.606;7.576;2023-12-28T08:38:38;99287.97;;;6.63;62.91
10587;BME280;5341;47.606;7.576;2023-12-28T08:41:06;99287.81;;;6.64;62.94
10587;BME280;5341;47.606;7.576;2023-12-28T08:43:37;99296.63;;;6.65;63.09
10587;BME280;5341;47.606;7.576;2023-12-28T08:46:07;99285.00;;;6.66;63.26
10587;BME280;5341;47.606;7.576;2023-12-28T08:48:35;99282.22;;;6.67;62.83
10587;BME280;5341;47.606;7.576;2023-12-28T08:51:03;99266.97;;;6.69;62.78
10587;BME280;5341;47.606;7.576;2023-12-28T08:53:30;99274.94;;;6.69;62.75
10587;BME280;5341;47.606;7.576;2023-12-28T08:55:57;99260.66;;;6.70;62.82
10587;BME280;5341;47.606;7.576;2023-12-28T08:58:25;99265.84;;;6.72;62.58
10587;BME280;5341;47.606;7.576;2023-12-28T09:00:54;99269.34;;;6.72;62.53
10587;BME280;5341;47.606;7.576;2023-12-28T09:03:21;99294.94;;;6.73;62.77
10587;BME280;5341;47.606;7.576;2023-12-28T09:05:48;99302.91;;;6.73;62.98
10587;BME280;5341;47.606;7.576;2023-12-28T09:08:15;99283.16;;;6.76;63.03
10587;BME280;5341;47.606;7.576;2023-12-28T09:10:43;99283.00;;;6.78;63.03
10587;BME280;5341;47.606;7.576;2023-12-28T09:13:15;99304.00;;;6.81;62.80
10587;BME280;5341;47.606;7.576;2023-12-28T09:15:43;99302.19;;;6.81;63.13
10587;BME280;5341;47.606;7.576;2023-12-28T09:18:13;99296.56;;;6.84;63.00
10587;BME280;5341;47.606;7.576;2023-12-28T09:20:40;99292.94;;;6.85;62.98
10587;BME280;5341;47.606;7.576;2023-12-28T09:23:08;99289.13;;;6.88;63.01
10587;BME280;5341;47.606;7.576;2023-12-28T09:25:36;99300.59;;;6.88;62.92
10587;BME280;5341;47.606;7.576;2023-12-28T09:28:05;99288.97;;;6.89;63.09
10587;BME280;5341;47.606;7.576;2023-12-28T09:30:32;99303.94;;;6.90;63.07
10587;BME280;5341;47.606;7.576;2023-12-28T09:32:59;99297.69;;;6.91;62.80
10587;BME280;5341;47.606;7.576;2023-12-28T09:35:28;99301.19;;;6.92;62.64
10587;BME280;5341;47.606;7.576;2023-12-28T09:37:56;99307.31;;;6.92;62.72
10587;BME280;5341;47.606;7.576;2023-12-28T09:40:24;99313.34;;;6.94;63.05
10587;BME280;5341;47.606;7.576;2023-12-28T09:42:57;99311.50;;;6.95;62.65
10587;BME280;5341;47.606;7.576;2023-12-28T09:45:28;99316.00;;;6.94;62.86
10587;BME280;5341;47.606;7.576;2023-12-28T09:47:55;99317.66;;;6.95;62.65
10587;BME280;5341;47.606;7.576;2023-12-28T09:50:23;99317.50;;;6.97;62.88
10587;BME280;5341;47.606;7.576;2023-12-28T09:52:54;99311.22;;;6.98;63.12
10587;BME280;5341;47.606;7.576;2023-12-28T09:55:21;99317.38;;;6.98;63.07
10587;BME280;5341;47.606;7.576;2023-12-28T09:57:51;99306.72;;;6.98;63.21
10587;BME280;5341;47.606;7.576;2023-12-28T10:00:19;99304.91;;;6.99;63.10
10587;BME280;5341;47.606;7.576;2023-12-28T10:02:50;99300.44;;;6.99;63.08
10587;BME280;5341;47.606;7.576;2023-12-28T10:05:18;99292.28;;;7.01;62.96
10587;BME280;5341;47.606;7.576;2023-12-28T10:07:45;99291.31;;;7.02;63.07
10587;BME280;5341;47.606;7.576;2023-12-28T10:10:15;99303.50;;;7.04;63.06
10587;BME280;5341;47.606;7.576;2023-12-28T10:12:46;99294.38;;;7.07;63.36
10587;BME280;5341;47.606;7.576;2023-12-28T10:15:14;99301.91;;;7.12;63.88
10587;BME280;5341;47.606;7.576;2023-12-28T10:17:42;99298.00;;;7.16;64.10
10587;BME280;5341;47.606;7.576;2023-12-28T10:20:09;99301.19;;;7.19;63.65
10587;BME280;5341;47.606;7.576;2023-12-28T10:22:37;99295.72;;;7.21;63.61
10587;BME280;5341;47.606;7.576;2023-12-28T10:25:06;99290.09;;;7.24;63.23
10587;BME280;5341;47.606;7.576;2023-12-28T10:27:39;99288.00;;;7.27;63.09
10587;BME280;5341;47.606;7.576;2023-12-28T10:30:08;99289.66;;;7.28;63.08
10587;BME280;5341;47.606;7.576;2023-12-28T10:32:40;99282.38;;;7.30;63.04
10587;BME280;5341;47.606;7.576;2023-12-28T10:35:08;99270.59;;;7.33;63.23
10587;BME280;5341;47.606;7.576;2023-12-28T10:37:35;99264.13;;;7.35;63.33
10587;BME280;5341;47.606;7.576;2023-12-28T10:40:07;99269.28;;;7.37;62.92
10587;BME280;5341;47.606;7.576;2023-12-28T10:42:49;99273.50;;;7.40;63.13
10587;BME280;5341;47.606;7.576;2023-12-28T10:45:19;99271.53;;;7.42;63.53
10587;BME280;5341;47.606;7.576;2023-12-28T10:47:54;99271.38;;;7.43;63.43
10587;BME280;5341;47.606;7.576;2023-12-28T10:50:26;99263.09;;;7.46;63.21
10587;BME280;5341;47.606;7.576;2023-12-28T10:53:04;99257.59;;;7.48;63.30
10587;BME280;5341;47.606;7.576;2023-12-28T10:55:40;99254.78;;;7.49;63.21
10587;BME280;5341;47.606;7.576;2023-12-28T10:58:18;99249.19;;;7.52;63.42
10587;BME280;5341;47.606;7.576;2023-12-28T11:00:55;99260.53;;;7.54;62.98
10587;BME280;5341;47.606;7.576;2023-12-28T11:03:28;99253.22;;;7.56;62.94
10587;BME280;5341;47.606;7.576;2023-12-28T11:05:58;99253.75;;;7.60;63.01
10587;BME280;5341;47.606;7.576;2023-12-28T11:08:26;99257.91;;;7.62;63.01
10587;BME280;5341;47.606;7.576;2023-12-28T11:10:54;99255.97;;;7.64;63.32
10587;BME280;5341;47.606;7.576;2023-12-28T11:13:23;99257.47;;;7.67;63.23
10587;BME280;5341;47.606;7.576;2023-12-28T11:15:51;99254.66;;;7.69;63.20
10587;BME280;5341;47.606;7.576;2023-12-28T11:18:19;99249.19;;;7.70;63.06
10587;BME280;5341;47.606;7.576;2023-12-28T11:20:49;99241.03;;;7.72;63.29
10587;BME280;5341;47.606;7.576;2023-12-28T11:23:18;99246.22;;;7.73;63.23
10587;BME280;5341;47.606;7.576;2023-12-28T11:25:45;99247.59;;;7.77;63.23
10587;BME280;5341;47.606;7.576;2023-12-28T11:28:13;99246.63;;;7.78;63.56
10587;BME280;5341;47.606;7.576;2023-12-28T11:30:43;99251.63;;;7.81;63.38
10587;BME280;5341;47.606;7.576;2023-12-28T11:33:10;99254.97;;;7.83;63.39
10587;BME280;5341;47.606;7.576;2023-12-28T11:35:39;99259.16;;;7.86;63.47
10587;BME280;5341;47.606;7.576;2023-12-28T11:38:08;99258.84;;;7.89;63.71
10587;BME280;5341;47.606;7.576;2023-12-28T11:40:42;99259.38;;;7.92;63.43
10587;BME280;5341;47.606;7.576;2023-12-28T11:43:17;99249.41;;;7.94;63.18
10587;BME280;5341;47.606;7.576;2023-12-28T11:45:51;99245.59;;;7.97;63.15
10587;BME280;5341;47.606;7.576;2023-12-28T11:48:25;99247.25;;;7.98;63.20
10587;BME280;5341;47.606;7.576;2023-12-28T11:50:55;99246.16;;;8.01;63.41
10587;BME280;5341;47.606;7.576;2023-12-28T11:53:24;99250.47;;;8.02;63.05
10587;BME280;5341;47.606;7.576;2023-12-28T11:55:52;99244.16;;;8.03;62.85
10587;BME280;5341;47.606;7.576;2023-12-28T11:58:26;99247.50;;;8.05;63.12
10587;BME280;5341;47.606;7.576;2023-12-28T12:00:55;99238.53;;;8.06;63.00
10587;BME280;5341;47.606;7.576;2023-12-28T12:03:25;99241.84;;;8.08;63.12
10587;BME280;5341;47.606;7.576;2023-12-28T12:05:53;99227.53;;;8.09;63.07
10587;BME280;5341;47.606;7.576;2023-12-28T12:08:23;99223.06;;;8.09;63.10
10587;BME280;5341;47.606;7.576;2023-12-28T12:11:02;99223.72;;;8.11;63.07
10587;BME280;5341;47.606;7.576;2023-12-28T12:13:32;99234.38;;;8.11;63.15
10587;BME280;5341;47.606;7.576;2023-12-28T12:16:01;99225.44;;;8.12;63.51
10587;BME280;5341;47.606;7.576;2023-12-28T12:18:32;99216.44;;;8.13;62.79
10587;BME280;5341;47.606;7.576;2023-12-28T12:21:00;99217.28;;;8.14;62.83
10587;BME280;5341;47.606;7.576;2023-12-28T12:23:28;99214.63;;;8.14;62.96
10587;BME280;5341;47.606;7.576;2023-12-28T12:25:56;99210.97;;;8.15;62.93
10587;BME280;5341;47.606;7.576;2023-12-28T12:28:23;99205.47;;;8.16;63.05
10587;BME280;5341;47.606;7.576;2023-12-28T12:30:53;99186.00;;;8.16;62.97
10587;BME280;5341;47.606;7.576;2023-12-28T12:33:25;99192.81;;;8.18;62.73
10587;BME280;5341;47.606;7.576;2023-12-28T12:35:54;99175.84;;;8.19;62.88
10587;BME280;5341;47.606;7.576;2023-12-28T12:38:21;99176.69;;;8.20;62.59
10587;BME280;5341;47.606;7.576;2023-12-28T12:40:50;99175.69;;;8.21;63.34
10587;BME280;5341;47.606;7.576;2023-12-28T12:43:18;99178.19;;;8.22;62.94
10587;BME280;5341;47.606;7.576;2023-12-28T12:45:46;99185.19;;;8.23;63.05
10587;BME280;5341;47.606;7.576;2023-12-28T12:48:14;99181.56;;;8.25;62.79
10587;BME280;5341;47.606;7.576;2023-12-28T12:50:43;99175.22;;;8.26;62.79
10587;BME280;5341;47.606;7.576;2023-12-28T12:53:11;99173.41;;;8.26;63.02
10587;BME280;5341;47.606;7.576;2023-12-28T12:55:38;99170.75;;;8.26;62.78
10587;BME280;5341;47.606;7.576;2023-12-28T12:58:08;99175.91;;;8.28;63.00
10587;BME280;5341;47.606;7.576;2023-12-28T13:00:38;99171.41;;;8.28;63.22
10587;BME280;5341;47.606;7.576;2023-12-28T13:03:07;99169.59;;;8.29;63.67
10587;BME280;5341;47.606;7.576;2023-12-28T13:05:35;99164.09;;;8.30;63.50
10587;BME280;5341;47.606;7.576;2023-12-28T13:08:05;99159.59;;;8.31;63.44
10587;BME280;5341;47.606;7.576;2023-12-28T13:10:33;99169.25;;;8.32;63.13
10587;BME280;5341;47.606;7.576;2023-12-28T13:13:00;99176.97;;;8.35;63.61
10587;BME280;5341;47.606;7.576;2023-12-28T13:15:27;99183.13;;;8.35;63.41
10587;BME280;5341;47.606;7.576;2023-12-28T13:17:55;99180.16;;;8.38;63.83
10587;BME280;5341;47.606;7.576;2023-12-28T13:20:22;99172.19;;;8.38;63.40
10587;BME280;5341;47.606;7.576;2023-12-28T13:22:50;99173.00;;;8.39;63.73
10587;BME280;5341;47.606;7.576;2023-12-28T13:25:22;99170.84;;;8.42;63.49
10587;BME280;5341;47.606;7.576;2023-12-28T13:27:49;99171.69;;;8.43;63.57